AirNav   Air Wisconsin pilot careers
 
 339 users online  

09W South Capitol Street Heliport
Washington, District of Columbia, USA

GOING TO WASHINGTON?


FAA INFORMATION EFFECTIVE 29 MARCH 2018

Location

FAA Identifier: 09W
Lat/Long: 38-52-07.4040N / 077-00-26.9130W
38-52.123400N / 077-00.448550W
38.8687233 / -77.0074758
(estimated)
Elevation: 10 ft. / 3.0 m (surveyed)
Variation: 09W (1985)
Time zone: UTC -4 (UTC -5 during Standard Time)
Zip code: 20398

Heliport Operations

Heliport use: Open to the public
Activation date: 04/1974
Control tower: no
ARTCC: WASHINGTON CENTER
FSS: LEESBURG FLIGHT SERVICE STATION
NOTAMs facility: DCA (NOTAM-D service available)
Attendance: MON-FRI 0700-1900, ALL SAT-SUN 1100-1900
OPEN HOLIDAYS UPON RESERVATION.
Wind indicator: lighted
Segmented circle: no
Beacon: white-green-yellow (heliport)
Operates sunset to sunrise.

Heliport Communications

CTAF/UNICOM: 123.05
WX ASOS at DCA (1.8 nm SW): 132.65 (703-412-8140)
WX AWOS-3 at CGS (8 nm NE): 121.225 (301-864-5497)
WX AWOS-3 at FME (17 nm NE): 123.925
WX AWOS-3PT at GAI (19 nm N): 128.275 (301-977-2971)

Nearby radio navigation aids

VOR radial/distance  VOR name  Freq  Var
DCAr077/1.5WASHINGTON VOR/DME111.0009W
ADWr309/7.6ANDREWS VORTAC113.1010W
OTTr318/15.7NOTTINGHAM VORTAC113.7010W
AMLr108/21.8ARMEL VOR/DME113.5008W
BALr233/24.3BALTIMORE VORTAC115.1011W
BRVr036/35.8BROOKE VORTAC114.5009W
FDKr160/(36.8)FREDERICK VOR109.0008W
EMIr190/37.6WESTMINSTER VORTAC117.9008W

 
NDB name  Hdg/Dist  Freq  Var  ID
OXONN020/6.233211WDCA -.. -.-. .-
GEORGETOWN133/6.632309WGTN --. - -.
DAVEE030/13.322309WDAA -.. .- .-
ELLICOTT214/27.337111WFND ..-. -. -..
GOODWIN LAKE106/38.822708WGDX --. -.. -..-

Heliport Services

Fuel available: A
Airframe service: NONE
Powerplant service: NONE

Runway Information

Helipad H1

Dimensions: 60 x 60 ft. / 18 x 18 m
Surface: asphalt, in good condition
Runway edge lights: PERIMETER & RLLS LGTS.
Latitude: 38-52.123333N
Longitude: 077-00.448500W
Elevation: 10.0 ft.
Traffic pattern: leftleft

Heliport Ownership and Management from official FAA records

Ownership: Privately-owned
Owner: SOUTH CAPITOL STREET HELIPORT, LLC
115 VALLEYVIEW RD
FAIRFIELD, CT 06824
Phone 203-856-6407
Manager: DON SCIMONELLI
1724 S CAPITAL ST SE
WASHINGTON, DC 20003
Phone 202-484-8616

Heliport Operational Statistics

Aircraft based on the field: 1
Helicopters: 1
    
Aircraft operations: avg 33/month *
50% transient general aviation
50% local general aviation
* for 12-month period ending 05 December 1997

Additional Remarks

A52-H1 75 FT LGTD BRIDGE 500 FT E; + 50 FT STACK 400 FT W; +40 FT BLDG 60 FT NE.
INGRESS & EGRESS ROUTES NE & SW OVER ANACOSTIA RIVER.
LARGE LOOSE GRAVEL SOUTH & WEST OF PAVEMENT.

Instrument Procedures

There are no published instrument procedures at 09W.

Some nearby airports with instrument procedures:

KDCA - Ronald Reagan Washington National Airport (2 nm SW)
KADW - Joint Base Andrews (7 nm SE)
KVKX - Potomac Airfield (8 nm S)
KCGS - College Park Airport (8 nm NE)
W32 - Washington Executive Airport/Hyde Field (8 nm SE)
W00 - Freeway Airport (12 nm E)
KDAA - Davison Army Airfield (12 nm SW)
2W5 - Maryland Airport (17 nm S)
KFME - Tipton Airport (17 nm NE)
KGAI - Montgomery County Airpark (19 nm N)
 
Loc | Ops | Rwys | IFR | FBO | Links
Com | Nav | Svcs | Stats | Notes

AirNav Hotels Sweepstakes
 
Area around 09W (South Capitol Street Heliport)
 
Road maps at: MapQuest Bing Google
 
Aerial photo
WARNING: Photo may not be current or correct
Aerial photo of 09W (South Capitol Street Heliport)
Photo courtesy of Steven Bussman
Bussman Aviation
Photo taken 29-Apr-2012
looking northeast.

Do you have a better or more recent aerial photo of South Capitol Street Heliport that you would like to share? If so, please send us your photo.

 
Sectional chart

 
Airport distance calculator
Flying to South Capitol Street Heliport? Find the distance to fly.

From to 09W

Sunrise and sunset
Times for 20-Apr-2018
 Local
(UTC-4)
 Zulu
(UTC)
Morning civil twilight05:5809:58
Sunrise06:2610:26
Sunset19:4823:48
Evening civil twilight20:1600:16

Current date and time
Zulu (UTC)  20-Apr-2018 08:43:20
Local (UTC-4)  20-Apr-2018 04:43:20
 
METAR
KDCA 
2nm SW 
200752Z 33010KT 10SM CLR 04/M06 A3023 RMK AO2 SLP236 T00441061
KADW 
7nm SE 
200756Z AUTO 33010KT 10SM CLR 04/M06 A3020 RMK AO2 SLP235 T00351060 $
KVKX 
8nm S 
SuperAWOS
200815Z AUTO 00000KT 10SM 04/M04 A3023
KCGS 
8nm NE 
200817Z AUTO 32006G14KT 10SM CLR 03/M06 A3023 RMK AO1 T00331059
KDAA 
12nm SW 
200756Z AUTO 32010KT 10SM CLR 04/M06 A3022 RMK AO2 SLP237 T00441059 $
KFME 
17nm NE 
200815Z AUTO 28004KT 10SM CLR 01/M05 A3025 RMK AO1
KGAI 
19nm N 
200756Z AUTO 31008KT 10SM CLR 02/M06 A3021 RMK AO2 SLP263 T00171056 FZRANO
TAF
KDCA 
2nm SW 
200530Z 2006/2112 31009KT P6SM FEW050 FM201300 32015G26KT P6SM FEW050 FM202300 33011KT P6SM SKC FM210300 34006KT P6SM SKC
KADW 
7nm SE 
200500Z 2005/2107 31015G25KT 9999 SCT060 QNH3014INS BECMG 2006/2007 30010G15KT 9999 SKC QNH3019INS BECMG 2012/2013 30015G25KT 9999 SKC QNH3029INS BECMG 2016/2017 30010G15KT 9999 SKC QNH3026INS BECMG 2020/2021 32009KT 9999 FEW050 QNH3027INS WND 35006KT AFT 2106 TX12/2021Z TN01/2009Z
KDAA 
12nm SW 
200100Z 2001/2107 31015G20KT 9999 BKN060 620601 QNH3013INS BECMG 2006/2007 30010G15KT 9999 SKC QNH3019INS BECMG 2012/2013 30015G25KT 9999 SKC QNH3029INS BECMG 2016/2017 30010G15KT 9999 SKC QNH3026INS BECMG 2020/2021 32009KT 9999 FEW050 QNH3027INS WND 35006KT AFT 2106 TX12/2021Z TN01/2009Z LAST NO AMDS AFT 2002 NEXT 2110
NOTAMs
Click for the latest NOTAMs
NOTAMs are issued by the DoD/FAA and will open in a separate window not controlled by AirNav.

 

 
 

FBO, Fuel Providers, and Aircraft Ground Support

  
 Business Name 
 
 Contact 
 
 Services / Description 
 
Fuel Prices
 
Comments
  
South Capitol Street Heliport FBO UNICOM 123.05
202-484-8616
202-527-8687
[email]

Like us on facebook
Airport management, Aviation fuel, Aircraft parking (ramp or tiedown), Hangars, Hangar leasing / sales, Passenger terminal and lounge, ...
 
U.S. Government AIR Card  
 
More info about South Capitol Street Heliport FBO
independent
Jet A
AS $7.78 
 Updated 25-Jan-2018
 
   write
AS=Assisted/Self Service
Update Fuel Prices
 

Would you like to see your business listed on this page?

 If your business provides an interesting product or service to pilots, flight crews, aircraft, or users of the South Capitol Street Heliport, you should consider listing it here.  To start the listing process, click on the button below
 
Add a business
 

Other Pages about South Capitol Street Heliport

Update a link
 
Copyright © AirNav, LLC. All rights reserved. Privacy Policy  Contact